Time;durP1;ratioP1;P1;durP2;ratioP2;P2;SDS_P1;SDS_P2;PMS_P1;PMS_P2;Temp;Humidity;BMP_temperature;BMP_pressure;BME280_temperature;BME280_humidity;BME280_pressure;Samples;Min_cycle;Max_cycle;Signal;HPM_P1;HPM_P2
2022/11/30 05:41:07;;;;;;;12.18;4.60;;;;;;;-1.56;84.85;101377.36;1714860;82;21115;-46
2022/11/30 05:43:36;;;;;;;15.23;5.22;;;;;;;-1.59;84.53;101376.74;1731266;82;21006;-40
2022/11/30 05:46:04;;;;;;;12.90;5.03;;;;;;;-1.62;84.42;101377.84;1723168;81;21066;-48
2022/11/30 05:48:31;;;;;;;9.10;4.70;;;;;;;-1.66;84.40;101381.88;1728072;81;21816;-47
2022/11/30 05:51:10;;;;;;;9.53;4.70;;;;;;;-1.68;84.62;101387.67;1730940;81;21059;-48
2022/11/30 05:53:37;;;;;;;9.60;4.67;;;;;;;-1.69;84.71;101385.50;1733872;82;20975;-41
2022/11/30 05:56:06;;;;;;;9.23;4.65;;;;;;;-1.69;84.89;101380.77;1732786;81;21092;-48
2022/11/30 05:58:33;;;;;;;13.03;4.62;;;;;;;-1.68;84.98;101375.76;1727549;82;21572;-49
2022/11/30 06:01:00;;;;;;;8.35;4.15;;;;;;;-1.70;85.11;101381.56;1726916;81;21092;-40
2022/11/30 06:03:28;;;;;;;8.78;4.55;;;;;;;-1.69;85.47;101382.05;1733564;82;21048;-40
2022/11/30 06:05:55;;;;;;;9.48;4.45;;;;;;;-1.67;85.39;101386.91;1722399;81;21051;-48
2022/11/30 06:08:22;;;;;;;9.90;4.12;;;;;;;-1.70;85.13;101383.73;1734080;82;21012;-40
2022/11/30 06:10:49;;;;;;;8.33;4.17;;;;;;;-1.72;85.03;101395.98;1724099;81;21060;-39
2022/11/30 06:13:16;;;;;;;13.03;4.85;;;;;;;-1.71;85.21;101392.22;1728428;81;21417;-39
2022/11/30 06:15:42;;;;;;;10.30;5.15;;;;;;;-1.72;85.20;101394.30;1728465;81;21068;-40
2022/11/30 06:18:11;;;;;;;9.18;4.37;;;;;;;-1.68;85.35;101395.37;1724169;81;21056;-49
2022/11/30 06:20:38;;;;;;;7.37;4.28;;;;;;;-1.64;85.27;101398.25;1675660;83;21154;-49
2022/11/30 06:23:05;;;;;;;14.45;5.05;;;;;;;-1.61;85.23;101399.75;1727901;81;20999;-40
2022/11/30 06:25:33;;;;;;;11.48;5.00;;;;;;;-1.55;85.15;101402.23;1722759;81;21243;-50
2022/11/30 06:28:02;;;;;;;12.10;4.90;;;;;;;-1.50;85.17;101403.42;1717164;81;21026;-40
2022/11/30 06:30:29;;;;;;;6.97;4.33;;;;;;;-1.47;84.87;101405.78;1733736;81;21557;-47
2022/11/30 06:32:55;;;;;;;10.35;5.55;;;;;;;-1.44;84.68;101406.00;1722899;81;21358;-49
2022/11/30 06:35:24;;;;;;;9.55;4.72;;;;;;;-1.40;84.57;101412.20;1725354;81;21122;-39
2022/11/30 06:38:02;;;;;;;11.78;4.90;;;;;;;-1.35;84.24;101409.14;1722590;81;21011;-40
2022/11/30 06:41:05;;;;;;;11.55;4.55;;;;;;;-1.33;83.66;101409.27;1722482;80;21148;-39
2022/11/30 06:44:18;;;;;;;8.63;4.30;;;;;;;-1.32;83.27;101414.89;1711703;81;21026;-48
2022/11/30 06:47:15;;;;;;;7.87;4.33;;;;;;;-1.27;83.24;101418.66;1714719;80;21079;-47
2022/11/30 06:49:41;;;;;;;;;;;;;;;-1.24;83.19;101416.27;1691860;83;21353;-48
2022/11/30 06:52:08;;;;;;;10.88;4.03;;;;;;;-1.20;83.17;101421.22;1647515;84;20121;-39
2022/11/30 06:54:35;;;;;;;11.93;4.20;;;;;;;-1.16;83.08;101424.09;1680913;82;21534;-39
2022/11/30 06:57:02;;;;;;;7.42;3.77;;;;;;;-1.10;83.21;101426.17;1694661;82;21120;-38
2022/11/30 06:59:30;;;;;;;12.73;4.42;;;;;;;-1.03;83.26;101422.31;1685477;82;21493;-47
2022/11/30 07:01:58;;;;;;;10.82;4.72;;;;;;;-0.99;83.05;101428.12;1650280;83;21167;-40
2022/11/30 07:04:36;;;;;;;7.75;3.95;;;;;;;-0.97;82.78;101426.16;1698128;82;21073;-48
2022/11/30 07:07:07;;;;;;;11.95;4.85;;;;;;;-0.94;82.39;101416.06;1685576;81;21037;-47
2022/11/30 07:09:35;;;;;;;6.80;3.33;;;;;;;-0.93;82.46;101411.44;1628308;85;22102;-48
2022/11/30 07:12:02;;;;;;;11.05;4.40;;;;;;;-0.89;82.25;101416.36;1725014;81;21669;-40
2022/11/30 07:14:40;;;;;;;12.73;4.90;;;;;;;-0.86;82.29;101416.57;1727123;81;21699;-48
2022/11/30 07:17:09;;;;;;;13.50;4.00;;;;;;;-0.81;82.04;101422.50;1694255;81;21163;-40
2022/11/30 07:19:43;;;;;;;9.00;3.87;;;;;;;-0.76;81.92;101408.62;1698920;81;21641;-50
2022/11/30 09:37:45;;;;;;;10.82;4.70;;;;;;;0.47;73.76;101350.90;1847235;74;25839;-41
2022/11/30 09:40:13;;;;;;;13.38;3.75;;;;;;;0.49;73.44;101353.15;1857396;75;21531;-38
2022/11/30 09:42:50;;;;;;;9.50;3.75;;;;;;;0.50;73.35;101356.20;1856095;75;21000;-38
2022/11/30 09:45:32;;;;;;;9.15;4.65;;;;;;;0.49;73.43;101358.30;1826232;75;21852;-48
2022/11/30 09:48:33;;;;;;;11.97;3.58;;;;;;;0.50;73.41;101361.36;1847752;76;21891;-48
2022/11/30 09:51:55;;;;;;;14.43;4.67;;;;;;;0.48;73.16;101356.53;1754552;80;21356;-40
2022/11/30 09:54:51;;;;;;;11.73;3.72;;;;;;;0.53;73.51;101356.39;1725571;81;21152;-39
2022/11/30 09:58:09;;;;;;;11.05;3.37;;;;;;;0.59;72.92;101356.27;1723578;81;21547;-47
2022/11/30 10:04:52;;;;;;;11.50;3.33;;;;;;;0.61;72.53;101365.84;1725884;81;21056;-47
2022/11/30 10:08:38;;;;;;;8.68;4.03;;;;;;;0.63;72.21;101351.75;1725927;81;21621;-48
2022/11/30 10:16:21;;;;;;;8.25;3.65;;;;;;;0.56;71.97;101359.94;1726580;81;21489;-39
2022/11/30 10:19:25;;;;;;;8.45;3.62;;;;;;;0.55;72.20;101350.04;1728012;81;21010;-39
2022/11/30 10:22:02;;;;;;;11.95;3.37;;;;;;;0.62;72.42;101348.29;1724386;81;22590;-48
2022/11/30 10:24:47;;;;;;;11.65;3.90;;;;;;;0.68;72.10;101343.88;1733579;80;21505;-38
2022/11/30 10:27:37;;;;;;;12.78;3.90;;;;;;;0.67;72.06;101346.86;1768500;76;21030;-48
2022/11/30 10:30:17;;;;;;;8.38;3.37;;;;;;;0.69;71.98;101345.66;1851686;75;21047;-40
2022/11/30 10:32:46;;;;;;;10.32;5.15;;;;;;;0.65;71.74;101342.03;1849134;75;21870;-48
2022/11/30 10:35:34;;;;;;;9.65;3.35;;;;;;;0.61;71.86;101344.34;1825277;75;21528;-48
2022/11/30 10:38:34;;;;;;;12.00;4.33;;;;;;;0.59;71.82;101344.27;1782394;78;21071;-47
2022/11/30 10:44:22;;;;;;;8.95;3.37;;;;;;;0.59;72.11;101353.69;1782399;78;20964;-48
2022/11/30 10:47:32;;;;;;;11.55;3.52;;;;;;;0.61;71.74;101346.52;1780889;78;21488;-39
2022/11/30 10:50:06;;;;;;;12.18;4.08;;;;;;;0.64;71.73;101351.86;1778766;79;20956;-37
2022/11/30 10:52:47;;;;;;;8.68;3.52;;;;;;;0.66;71.53;101350.25;1784910;78;21004;-46
2022/11/30 10:55:23;;;;;;;8.15;3.25;;;;;;;0.66;71.64;101345.50;1784594;78;20972;-47
2022/11/30 10:58:16;;;;;;;11.80;3.83;;;;;;;0.68;71.65;101347.34;1787245;78;21073;-45
2022/11/30 11:00:51;;;;;;;8.20;3.67;;;;;;;0.72;71.64;101341.57;1782112;78;21317;-46
2022/11/30 11:03:26;;;;;;;10.48;4.05;;;;;;;0.77;71.69;101345.70;1781974;78;21802;-38
2022/11/30 11:06:14;;;;;;;10.08;3.05;;;;;;;0.80;71.75;101344.16;1782613;78;21088;-38
2022/11/30 11:08:41;;;;;;;11.22;3.50;;;;;;;0.84;71.78;101351.67;1785141;79;21028;-39
2022/11/30 11:11:35;;;;;;;7.78;4.28;;;;;;;0.87;71.42;101345.42;1786734;78;21033;-39
2022/11/30 11:14:19;;;;;;;22.87;4.58;;;;;;;0.91;71.37;101347.74;1794095;77;21029;-38
2022/11/30 11:16:56;;;;;;;9.80;3.65;;;;;;;0.90;70.80;101345.57;1844485;75;21202;-37
2022/11/30 11:19:42;;;;;;;8.35;3.30;;;;;;;0.87;70.72;101347.08;1847632;75;21684;-40
